Time;durP1;ratioP1;P1;durP2;ratioP2;P2;SDS_P1;SDS_P2;PMS_P1;PMS_P2;Temp;Humidity;BMP_temperature;BMP_pressure;BME280_temperature;BME280_humidity;BME280_pressure;Samples;Min_cycle;Max_cycle;Signal;HPM_P1;HPM_P2
2022/01/28 00:01:45;;;;;;;18.38;2.55;;;4.90;99.90;;;;;;5074037;27;20043;-87
2022/01/28 00:04:16;;;;;;;20.35;2.88;;;4.90;99.90;;;;;;5085034;28;20590;-87
2022/01/28 00:06:42;;;;;;;23.70;3.20;;;4.90;99.90;;;;;;5071088;28;20608;-87
2022/01/28 00:09:08;;;;;;;20.50;3.42;;;4.90;99.90;;;;;;5066495;28;20056;-87
2022/01/28 00:11:34;;;;;;;27.40;3.28;;;4.90;99.90;;;;;;5082862;28;20032;-87
2022/01/28 00:14:30;;;;;;;19.63;2.90;;;4.80;99.90;;;;;;5063193;28;20118;-87
2022/01/28 00:17:35;;;;;;;13.43;2.70;;;4.90;99.90;;;;;;5080529;28;20040;-88
2022/01/28 00:38:44;;;;;;;9.98;2.30;;;5.00;99.90;;;;;;5088801;28;20048;-87
2022/01/28 00:41:11;;;;;;;15.65;2.63;;;5.00;99.90;;;;;;5071594;28;20089;-86
2022/01/28 00:43:36;;;;;;;13.43;2.28;;;4.90;99.90;;;;;;5088632;28;20451;-88
2022/01/28 00:46:02;;;;;;;14.60;2.47;;;4.90;99.90;;;;;;5085434;28;20089;-87
2022/01/28 00:48:27;;;;;;;20.70;2.22;;;5.00;99.90;;;;;;5075942;28;20042;-88
2022/01/28 00:50:53;;;;;;;13.70;1.92;;;5.00;99.90;;;;;;5069276;28;20036;-87
2022/01/28 00:53:19;;;;;;;17.20;2.65;;;5.00;99.90;;;;;;5070344;28;20031;-87
2022/01/28 00:55:44;;;;;;;18.48;2.90;;;5.00;99.90;;;;;;5086909;28;20028;-87
2022/01/28 00:58:10;;;;;;;14.07;1.95;;;5.00;99.90;;;;;;5069804;28;20064;-86
2022/01/28 01:00:36;;;;;;;15.75;2.33;;;5.00;99.90;;;;;;5088274;28;20085;-87
2022/01/28 01:03:02;;;;;;;17.52;2.08;;;5.00;99.90;;;;;;5070206;28;20652;-86
2022/01/28 01:05:30;;;;;;;11.80;2.30;;;5.00;99.90;;;;;;5070983;28;20039;-88
2022/01/28 01:07:56;;;;;;;14.52;2.30;;;5.00;99.90;;;;;;5070417;28;20032;-87
2022/01/28 01:10:24;;;;;;;14.85;2.35;;;5.00;99.90;;;;;;5087534;28;20071;-88
2022/01/28 01:12:49;;;;;;;10.15;2.75;;;5.00;99.90;;;;;;5068295;28;20078;-87
2022/01/28 01:15:20;;;;;;;16.50;2.08;;;5.00;99.90;;;;;;5069551;28;20325;-88
2022/01/28 01:17:57;;;;;;;15.82;2.03;;;5.00;99.90;;;;;;5085239;28;20478;-88
2022/01/28 01:25:28;;;;;;;16.65;2.35;;;4.90;99.90;;;;;;5085467;28;20036;-87
2022/01/28 01:27:56;;;;;;;11.93;1.90;;;5.00;99.90;;;;;;5070235;28;20076;-87
2022/01/28 01:30:24;;;;;;;20.85;2.72;;;5.00;99.90;;;;;;5087505;28;20069;-88
2022/01/28 01:32:50;;;;;;;14.00;2.08;;;5.00;99.90;;;;;;5070014;28;20635;-87
2022/01/28 01:35:16;;;;;;;18.92;2.35;;;5.00;99.90;;;;;;5068928;28;20040;-87
2022/01/28 01:37:41;;;;;;;18.58;2.70;;;5.00;99.90;;;;;;5070588;28;20132;-88
2022/01/28 01:40:08;;;;;;;20.20;3.10;;;5.00;99.90;;;;;;5070827;28;20044;-88
2022/01/28 01:53:20;;;;;;;18.05;2.55;;;5.00;99.90;;;;;;5092712;28;20076;-87
2022/01/28 01:55:47;;;;;;;19.08;3.13;;;5.00;99.90;;;;;;5089770;28;20071;-88
2022/01/28 01:58:12;;;;;;;21.80;3.55;;;5.00;99.90;;;;;;5070171;28;20044;-87
2022/01/28 02:00:38;;;;;;;17.80;2.97;;;5.00;99.90;;;;;;5072241;28;20047;-87
2022/01/28 02:03:04;;;;;;;22.02;3.45;;;5.00;99.90;;;;;;5070797;28;20438;-86
2022/01/28 02:05:29;;;;;;;17.70;2.60;;;5.10;99.90;;;;;;5069120;28;20040;-87
2022/01/28 02:07:55;;;;;;;14.38;2.88;;;5.10;99.90;;;;;;5069145;28;20043;-88
2022/01/28 02:10:20;;;;;;;33.65;5.47;;;5.10;99.90;;;;;;5069956;28;20067;-87
2022/01/28 02:12:52;;;;;;;19.52;3.42;;;5.00;99.90;;;;;;5070325;28;20093;-88
2022/01/28 02:15:21;;;;;;;26.23;3.05;;;5.00;99.90;;;;;;5071922;28;20046;-89
2022/01/28 02:17:47;;;;;;;27.17;3.78;;;5.00;99.90;;;;;;5071030;28;20525;-89
2022/01/28 02:24:00;;;;;;;24.95;3.75;;;4.90;99.90;;;;;;5076458;28;20068;-88
2022/01/28 02:26:26;;;;;;;25.15;3.92;;;4.90;99.90;;;;;;5054437;28;20021;-88
2022/01/28 02:28:55;;;;;;;31.77;4.15;;;4.90;99.90;;;;;;5065941;28;20108;-88
2022/01/28 02:31:24;;;;;;;27.88;3.10;;;5.00;99.90;;;;;;5070777;28;20092;-88
2022/01/28 02:33:52;;;;;;;23.33;3.85;;;4.90;99.90;;;;;;5071041;28;20040;-88
2022/01/28 02:36:18;;;;;;;23.83;3.63;;;5.00;99.90;;;;;;5085398;28;20055;-88
2022/01/28 02:38:44;;;;;;;23.70;4.35;;;5.00;99.90;;;;;;5069466;28;20035;-89
2022/01/28 02:41:10;;;;;;;17.02;3.85;;;5.00;99.90;;;;;;5071347;28;20032;-89
2022/01/28 02:46:09;;;;;;;25.42;3.80;;;5.10;99.90;;;;;;5087874;28;20032;-89
2022/01/28 02:48:38;;;;;;;17.05;3.88;;;5.10;99.90;;;;;;5066776;28;20365;-89
2022/01/28 02:51:16;;;;;;;12.68;2.35;;;5.20;99.90;;;;;;5083933;28;20119;-89
2022/01/28 02:53:55;;;;;;;13.77;2.70;;;5.20;99.90;;;;;;5068019;28;20480;-89
2022/01/28 02:56:37;;;;;;;20.02;2.75;;;5.10;99.90;;;;;;5070255;28;20040;-89
2022/01/28 02:59:06;;;;;;;25.67;3.45;;;5.20;99.90;;;;;;5070945;28;20036;-89
2022/01/28 03:01:33;;;;;;;29.35;3.08;;;5.20;99.90;;;;;;5071456;28;20032;-89
2022/01/28 03:04:03;;;;;;;24.45;3.75;;;5.10;99.90;;;;;;5085188;28;20116;-89
2022/01/28 03:06:28;;;;;;;22.90;3.35;;;5.10;99.90;;;;;;5087848;28;20495;-88
2022/01/28 03:08:59;;;;;;;19.25;3.90;;;5.10;99.90;;;;;;5070175;28;20050;-89
2022/01/28 03:11:42;;;;;;;26.77;3.30;;;5.10;99.90;;;;;;5071007;28;20047;-90
2022/01/28 03:14:19;;;;;;;15.55;3.28;;;5.10;99.90;;;;;;5070582;28;20040;-89
2022/01/28 03:19:21;;;;;;;23.02;3.80;;;5.00;99.90;;;;;;5084765;28;20514;-90
2022/01/28 03:21:57;;;;;;;20.98;3.65;;;5.00;99.90;;;;;;5088189;28;20040;-90
2022/01/28 03:24:27;;;;;;;27.05;3.85;;;5.00;99.90;;;;;;5071018;28;20036;-90
2022/01/28 03:27:01;;;;;;;18.58;3.00;;;5.00;99.90;;;;;;5071231;28;20043;-89
2022/01/28 03:29:26;;;;;;;25.13;3.22;;;5.00;99.90;;;;;;5070933;28;20044;-89
2022/01/28 03:31:52;;;;;;;18.85;3.28;;;5.00;99.90;;;;;;5070824;28;20084;-89
2022/01/28 03:34:20;;;;;;;21.77;3.80;;;5.00;99.90;;;;;;5090493;28;20512;-89
2022/01/28 03:36:46;;;;;;;26.10;4.63;;;4.90;99.90;;;;;;5091602;28;20066;-90
2022/01/28 03:39:12;;;;;;;21.55;4.18;;;4.90;99.90;;;;;;5094909;28;20044;-90
2022/01/28 03:41:38;;;;;;;32.35;3.60;;;4.90;99.90;;;;;;5091229;28;20040;-89
2022/01/28 03:44:07;;;;;;;23.13;3.95;;;4.90;99.90;;;;;;5074403;28;20035;-88
2022/01/28 03:46:33;;;;;;;22.02;3.40;;;4.90;99.90;;;;;;5071898;28;20036;-89
2022/01/28 03:49:00;;;;;;;24.30;4.03;;;5.00;99.90;;;;;;5090576;28;20055;-88
2022/01/28 03:51:26;;;;;;;15.05;3.28;;;5.00;99.90;;;;;;5073102;28;20036;-89
2022/01/28 03:53:51;;;;;;;17.70;3.78;;;5.10;99.90;;;;;;5073801;28;20036;-90
2022/01/28 03:56:17;;;;;;;19.95;3.63;;;5.10;99.90;;;;;;5090283;28;20040;-89
2022/01/28 03:58:44;;;;;;;19.50;3.25;;;5.10;99.90;;;;;;5073456;28;20432;-88
2022/01/28 04:01:16;;;;;;;21.52;3.67;;;5.10;99.90;;;;;;5090100;28;20040;-89
2022/01/28 04:03:49;;;;;;;25.83;3.78;;;5.20;99.90;;;;;;5086818;28;20042;-89
2022/01/28 04:11:46;;;;;;;19.80;3.00;;;5.20;99.90;;;;;;5094750;28;20123;-90
2022/01/28 04:14:17;;;;;;;21.90;3.95;;;5.20;99.90;;;;;;5074116;28;20047;-89
2022/01/28 04:19:27;;;;;;;23.90;3.40;;;5.20;99.90;;;;;;5090071;28;20039;-90
2022/01/28 04:21:53;;;;;;;22.50;3.67;;;5.20;99.90;;;;;;5086667;28;20462;-89
2022/01/28 04:24:19;;;;;;;25.15;3.80;;;5.20;99.90;;;;;;5074447;28;20028;-89
2022/01/28 04:26:45;;;;;;;19.02;3.40;;;5.10;99.90;;;;;;5089915;28;20036;-89
2022/01/28 04:29:11;;;;;;;18.08;3.78;;;5.10;99.90;;;;;;5073946;28;20044;-88
2022/01/28 04:31:42;;;;;;;20.38;3.28;;;5.00;99.90;;;;;;5072498;28;20035;-89
2022/01/28 04:34:09;;;;;;;19.58;3.47;;;5.00;99.90;;;;;;5070060;28;20143;-90
2022/01/28 04:36:39;;;;;;;26.83;3.38;;;5.00;99.90;;;;;;5071453;28;20451;-89
2022/01/28 04:39:17;;;;;;;28.15;4.03;;;5.00;99.90;;;;;;5070681;28;20036;-89
2022/01/28 04:41:57;;;;;;;23.73;4.65;;;5.00;99.90;;;;;;5072936;28;20040;-88
2022/01/28 04:44:34;;;;;;;23.80;4.53;;;5.00;99.90;;;;;;5072688;28;20119;-89
2022/01/28 04:47:10;;;;;;;20.60;3.20;;;5.00;99.90;;;;;;5071056;28;20032;-89
2022/01/28 04:54:53;;;;;;;22.73;3.88;;;5.00;99.90;;;;;;5090848;28;20117;-89
2022/01/28 04:58:12;;;;;;;27.10;3.67;;;5.00;99.90;;;;;;5077649;28;20046;-90
2022/01/28 05:00:23;;;;;;;22.50;3.53;;;5.00;99.90;;;;;;5077967;28;20123;-89
2022/01/28 05:08:56;;;;;;;25.08;3.95;;;5.00;99.90;;;;;;5092462;28;20035;-89
2022/01/28 05:11:55;;;;;;;27.48;4.97;;;4.90;99.90;;;;;;5102076;28;20087;-89
2022/01/28 05:17:09;;;;;;;23.20;4.10;;;4.90;99.90;;;;;;5086950;28;20044;-89
2022/01/28 05:23:22;;;;;;;27.02;3.92;;;4.80;99.90;;;;;;5086011;28;20052;-90
2022/01/28 05:27:22;;;;;;;26.10;3.28;;;4.70;99.90;;;;;;5089295;28;20651;-88
2022/01/28 05:29:48;;;;;;;25.23;4.53;;;4.70;99.90;;;;;;5070126;28;20047;-90
2022/01/28 05:32:14;;;;;;;24.77;3.83;;;4.70;99.90;;;;;;5088331;28;20040;-89
2022/01/28 05:34:40;;;;;;;24.33;3.83;;;4.70;99.90;;;;;;5088405;28;20039;-88
2022/01/28 05:37:07;;;;;;;24.45;4.40;;;4.70;99.90;;;;;;5089449;28;20069;-89
2022/01/28 05:39:33;;;;;;;35.17;4.28;;;4.70;99.90;;;;;;5072148;28;20104;-89
2022/01/28 05:41:58;;;;;;;20.63;3.58;;;4.70;99.90;;;;;;5071545;28;20028;-89
2022/01/28 05:44:25;;;;;;;22.70;3.58;;;4.70;99.90;;;;;;5086346;28;20032;-89
2022/01/28 05:46:52;;;;;;;25.23;3.78;;;4.70;99.90;;;;;;5089444;28;20032;-90
2022/01/28 05:49:18;;;;;;;20.02;3.53;;;4.70;99.90;;;;;;5070139;28;20070;-89
2022/01/28 05:51:44;;;;;;;26.33;4.30;;;4.60;99.90;;;;;;5089247;28;20048;-89
2022/01/28 05:54:10;;;;;;;27.75;4.00;;;4.70;99.90;;;;;;5072402;28;20447;-89
2022/01/28 05:56:36;;;;;;;34.30;4.22;;;4.70;99.90;;;;;;5089603;28;20054;-89
2022/01/28 05:59:02;;;;;;;24.52;4.13;;;4.70;99.90;;;;;;5070932;28;20115;-89
2022/01/28 06:01:28;;;;;;;27.88;4.05;;;4.70;99.90;;;;;;5070977;28;20036;-89
2022/01/28 06:03:53;;;;;;;22.65;4.22;;;4.60;99.90;;;;;;5071210;28;20036;-88
2022/01/28 06:06:21;;;;;;;29.83;4.88;;;4.60;99.90;;;;;;5071929;28;20040;-89
2022/01/28 06:08:55;;;;;;;32.30;4.88;;;4.70;99.90;;;;;;5088424;28;20044;-89
2022/01/28 06:11:22;;;;;;;26.90;5.97;;;4.70;99.90;;;;;;5088114;28;20476;-88
2022/01/28 06:13:48;;;;;;;21.05;3.20;;;4.70;99.90;;;;;;5068060;28;20446;-88
2022/01/28 06:16:14;;;;;;;18.48;3.10;;;4.70;99.90;;;;;;5061926;28;20032;-89
2022/01/28 06:18:40;;;;;;;22.60;3.78;;;4.70;99.90;;;;;;5087122;28;20040;-89
2022/01/28 06:21:07;;;;;;;21.70;3.25;;;4.80;99.90;;;;;;5071126;28;20384;-89
2022/01/28 06:23:33;;;;;;;44.15;5.30;;;4.80;99.90;;;;;;5088377;28;20067;-89
2022/01/28 06:25:59;;;;;;;24.00;4.68;;;4.80;99.90;;;;;;5070929;28;20066;-90
2022/01/28 06:28:25;;;;;;;27.20;4.32;;;4.80;99.90;;;;;;5087870;28;20738;-90
2022/01/28 06:30:51;;;;;;;21.33;3.25;;;4.80;99.90;;;;;;5087633;28;20050;-88
2022/01/28 06:33:17;;;;;;;23.30;3.30;;;4.80;99.90;;;;;;5070199;28;20126;-89
2022/01/28 06:35:44;;;;;;;25.70;4.13;;;4.80;99.90;;;;;;5071038;28;20074;-89
2022/01/28 06:38:10;;;;;;;27.30;4.00;;;4.80;99.90;;;;;;5070303;28;20031;-88
2022/01/28 06:40:36;;;;;;;27.98;4.15;;;4.90;99.90;;;;;;5070509;28;20562;-89
2022/01/28 06:43:01;;;;;;;23.45;3.53;;;4.90;99.90;;;;;;5069626;28;20044;-89
2022/01/28 06:45:27;;;;;;;25.33;3.83;;;4.90;99.90;;;;;;5081621;28;20081;-88
2022/01/28 06:47:53;;;;;;;21.25;4.78;;;4.90;99.90;;;;;;5070486;28;20036;-89
2022/01/28 06:50:18;;;;;;;20.50;3.25;;;4.90;99.90;;;;;;5070960;28;20036;-89
2022/01/28 06:52:44;;;;;;;22.00;3.67;;;4.90;99.90;;;;;;5071272;28;20040;-89
2022/01/28 06:55:11;;;;;;;25.10;4.00;;;4.90;99.90;;;;;;5087981;28;20044;-89
2022/01/28 06:57:37;;;;;;;22.75;4.43;;;4.90;99.90;;;;;;5071405;28;20039;-89
2022/01/28 07:00:08;;;;;;;25.73;4.07;;;4.90;99.90;;;;;;5069098;28;20423;-89
2022/01/28 07:02:34;;;;;;;20.45;3.65;;;4.80;99.90;;;;;;5085948;28;20047;-89
2022/01/28 07:04:59;;;;;;;25.30;4.53;;;4.80;99.90;;;;;;5088298;28;20035;-89
2022/01/28 07:07:26;;;;;;;27.13;3.58;;;4.80;99.90;;;;;;5066706;28;20039;-88
2022/01/28 07:09:52;;;;;;;20.02;3.30;;;4.70;99.90;;;;;;5059455;28;20079;-88
2022/01/28 07:12:18;;;;;;;25.27;3.72;;;4.80;99.90;;;;;;5064984;28;20044;-88
2022/01/28 07:14:44;;;;;;;27.42;3.47;;;4.70;99.90;;;;;;5067551;28;20581;-89
2022/01/28 07:17:10;;;;;;;20.50;3.63;;;4.70;99.90;;;;;;5066760;28;20119;-88
2022/01/28 07:19:36;;;;;;;16.88;3.25;;;4.70;99.90;;;;;;5044846;28;20167;-88
2022/01/28 07:22:02;;;;;;;26.95;3.90;;;4.60;99.90;;;;;;5045325;28;20036;-88
2022/01/28 07:24:28;;;;;;;21.23;3.28;;;4.60;99.90;;;;;;5050749;28;20036;-88
2022/01/28 07:26:54;;;;;;;26.45;3.65;;;4.60;99.90;;;;;;5066757;28;20036;-89
2022/01/28 07:29:20;;;;;;;18.90;3.47;;;4.60;99.90;;;;;;5050445;28;20533;-88
2022/01/28 07:31:46;;;;;;;33.50;6.63;;;4.60;99.90;;;;;;5066899;28;20036;-89
2022/01/28 07:34:12;;;;;;;22.70;3.40;;;4.60;99.90;;;;;;5049636;28;20032;-89
2022/01/28 07:36:39;;;;;;;26.88;4.95;;;4.50;99.90;;;;;;5047215;28;20043;-89
2022/01/28 07:39:06;;;;;;;31.35;4.22;;;4.50;99.90;;;;;;5047670;28;20447;-89
2022/01/28 07:41:33;;;;;;;23.45;3.75;;;4.50;99.90;;;;;;5059647;28;20029;-89
2022/01/28 07:43:59;;;;;;;21.77;3.40;;;4.50;99.90;;;;;;5046803;28;20327;-89
2022/01/28 07:46:25;;;;;;;17.80;3.80;;;4.50;99.90;;;;;;5065997;28;20079;-90
2022/01/28 07:48:51;;;;;;;20.40;3.03;;;4.40;99.90;;;;;;5064728;28;20086;-88
2022/01/28 07:51:16;;;;;;;16.05;3.17;;;4.40;99.90;;;;;;5048273;28;20078;-89
2022/01/28 07:53:42;;;;;;;22.00;4.53;;;4.50;99.90;;;;;;5032983;28;20032;-90
2022/01/28 07:56:08;;;;;;;20.98;3.33;;;4.50;99.90;;;;;;5066899;28;20249;-89
2022/01/28 07:58:33;;;;;;;18.92;3.60;;;4.40;99.90;;;;;;5064774;28;20064;-89
2022/01/28 08:00:59;;;;;;;23.30;4.00;;;4.50;99.90;;;;;;5065036;28;20045;-89
2022/01/28 08:03:25;;;;;;;24.00;3.90;;;4.50;99.90;;;;;;5049243;28;20041;-89
2022/01/28 08:05:50;;;;;;;18.88;3.30;;;4.50;99.90;;;;;;5045949;28;20120;-89
2022/01/28 08:08:19;;;;;;;20.30;3.40;;;4.50;99.90;;;;;;5047202;28;20035;-90
2022/01/28 08:10:46;;;;;;;23.42;4.43;;;4.50;99.90;;;;;;5048659;28;20045;-90
2022/01/28 08:13:12;;;;;;;20.85;3.83;;;4.50;99.90;;;;;;5047567;28;20044;-90
2022/01/28 08:15:39;;;;;;;22.73;3.67;;;4.50;99.90;;;;;;5049603;28;20488;-91
2022/01/28 08:18:06;;;;;;;21.83;3.92;;;4.50;99.90;;;;;;5045908;28;20083;-91
2022/01/28 08:20:32;;;;;;;17.23;3.03;;;4.50;99.90;;;;;;5061566;28;20549;-91
2022/01/28 08:22:58;;;;;;;27.05;5.15;;;4.50;99.90;;;;;;5054352;28;20538;-91
2022/01/28 08:25:29;;;;;;;21.95;3.70;;;4.50;99.90;;;;;;5050209;28;20069;-90
2022/01/28 08:27:55;;;;;;;21.50;3.38;;;4.50;99.90;;;;;;5034111;28;20068;-91
2022/01/28 08:30:23;;;;;;;18.13;3.25;;;4.50;99.90;;;;;;5060899;28;20064;-90
2022/01/28 08:32:50;;;;;;;24.42;3.33;;;4.50;99.90;;;;;;5075361;28;20515;-89
2022/01/28 08:35:16;;;;;;;22.63;3.72;;;4.50;99.90;;;;;;5064015;28;20048;-90
2022/01/28 08:37:42;;;;;;;17.08;3.20;;;4.50;99.90;;;;;;5059759;28;20064;-90
2022/01/28 08:40:12;;;;;;;26.75;4.57;;;4.50;99.90;;;;;;5044309;28;20051;-89
2022/01/28 08:42:37;;;;;;;23.45;3.70;;;4.50;99.90;;;;;;5078195;28;20037;-85
2022/01/28 08:45:04;;;;;;;23.73;4.05;;;4.50;99.90;;;;;;5035389;28;20048;-89
2022/01/28 08:47:30;;;;;;;25.17;3.38;;;4.40;99.90;;;;;;5049891;28;20270;-88
2022/01/28 08:49:55;;;;;;;21.13;3.38;;;4.40;99.90;;;;;;5045823;28;20031;-88
2022/01/28 08:52:21;;;;;;;27.90;4.85;;;4.40;99.90;;;;;;5040316;28;20048;-88
2022/01/28 08:54:47;;;;;;;21.70;4.95;;;4.40;99.90;;;;;;5049563;28;20047;-90
2022/01/28 08:57:13;;;;;;;27.92;4.60;;;4.30;99.90;;;;;;5049825;28;20072;-90
2022/01/28 08:59:42;;;;;;;29.08;4.00;;;4.40;99.90;;;;;;5079812;28;20071;-89
2022/01/28 09:02:09;;;;;;;25.55;3.50;;;4.40;99.90;;;;;;5050698;28;20047;-90
2022/01/28 09:04:34;;;;;;;23.27;3.40;;;4.40;99.90;;;;;;5045443;28;20029;-90
2022/01/28 09:07:00;;;;;;;23.35;3.50;;;4.40;99.90;;;;;;5042544;28;20036;-90
2022/01/28 09:09:26;;;;;;;24.40;4.22;;;4.40;99.90;;;;;;5072616;28;20054;-90
2022/01/28 09:12:28;;;;;;;17.90;3.38;;;4.40;99.90;;;;;;5056031;28;20055;-90
2022/01/28 09:14:53;;;;;;;20.20;3.83;;;4.50;99.90;;;;;;5072722;28;20072;-90
2022/01/28 09:17:21;;;;;;;25.42;4.40;;;4.50;99.90;;;;;;5060772;28;20078;-89
2022/01/28 09:19:48;;;;;;;13.80;2.97;;;4.60;99.90;;;;;;5057993;28;20033;-90
2022/01/28 09:22:13;;;;;;;25.25;3.80;;;4.60;99.90;;;;;;5056629;28;20487;-89
2022/01/28 09:24:39;;;;;;;23.35;3.58;;;4.70;99.90;;;;;;5046040;28;20037;-88
2022/01/28 09:27:06;;;;;;;20.02;3.90;;;4.70;99.90;;;;;;5064872;28;20041;-86
2022/01/28 09:29:31;;;;;;;22.98;4.47;;;4.80;99.90;;;;;;5072358;28;20033;-89
2022/01/28 09:31:57;;;;;;;17.38;3.80;;;4.90;99.90;;;;;;5058393;28;20045;-90
2022/01/28 09:34:22;;;;;;;21.90;4.28;;;4.90;99.90;;;;;;5079060;28;20492;-90
2022/01/28 09:36:48;;;;;;;22.85;4.88;;;4.90;99.90;;;;;;5058365;28;20041;-90
2022/01/28 09:39:13;;;;;;;21.40;3.70;;;5.00;99.90;;;;;;5069142;28;20441;-91
2022/01/28 09:41:40;;;;;;;33.00;5.53;;;5.00;99.90;;;;;;5036352;28;20072;-90
2022/01/28 09:44:09;;;;;;;25.65;4.20;;;5.10;99.90;;;;;;5071695;28;20037;-89
2022/01/28 09:46:35;;;;;;;28.95;4.45;;;5.10;99.90;;;;;;5034738;28;20581;-88
2022/01/28 09:49:03;;;;;;;36.78;4.65;;;5.10;99.90;;;;;;5050882;28;20029;-88
2022/01/28 09:51:29;;;;;;;26.23;4.90;;;5.10;99.90;;;;;;5076128;28;20120;-88
2022/01/28 09:53:54;;;;;;;27.40;4.53;;;5.20;99.90;;;;;;5037430;28;20119;-88
2022/01/28 09:56:20;;;;;;;34.83;3.95;;;5.20;99.90;;;;;;5086035;28;20044;-81
2022/01/28 09:58:46;;;;;;;26.40;4.75;;;5.20;99.90;;;;;;5062247;28;20067;-82
2022/01/28 10:01:12;;;;;;;24.48;4.30;;;5.30;99.90;;;;;;5072334;28;20040;-79
2022/01/28 10:03:37;;;;;;;24.30;3.60;;;5.30;99.90;;;;;;5051497;28;20524;-81
2022/01/28 10:06:03;;;;;;;30.10;4.75;;;5.40;99.90;;;;;;5080020;28;20032;-78
2022/01/28 10:08:29;;;;;;;28.55;4.07;;;5.40;99.90;;;;;;5053990;28;20039;-84
2022/01/28 10:11:05;;;;;;;32.80;5.30;;;5.40;99.90;;;;;;5081066;28;20044;-83
2022/01/28 10:13:44;;;;;;;24.05;4.53;;;5.40;99.90;;;;;;5084435;28;20542;-82
2022/01/28 10:16:19;;;;;;;25.90;4.05;;;5.40;99.90;;;;;;5072345;28;20411;-88
2022/01/28 10:18:49;;;;;;;24.30;3.55;;;5.50;99.90;;;;;;5084903;28;20545;-84
2022/01/28 10:21:16;;;;;;;23.80;3.90;;;5.50;99.90;;;;;;5069432;28;20093;-84
2022/01/28 10:23:43;;;;;;;32.78;5.05;;;5.60;99.90;;;;;;5063253;28;20086;-84
2022/01/28 10:26:08;;;;;;;18.42;3.30;;;5.60;99.90;;;;;;5082916;28;20067;-84
2022/01/28 10:28:35;;;;;;;21.00;4.07;;;5.60;99.90;;;;;;5064929;28;20078;-84
2022/01/28 10:31:03;;;;;;;21.83;3.85;;;5.60;99.90;;;;;;5085268;28;20068;-84
2022/01/28 10:33:29;;;;;;;21.88;3.75;;;5.70;99.90;;;;;;5081411;28;20452;-84
2022/01/28 10:36:00;;;;;;;25.38;3.30;;;5.70;99.90;;;;;;5082559;28;20039;-85
2022/01/28 10:38:33;;;;;;;27.58;5.35;;;5.80;99.90;;;;;;5069716;28;20097;-84
2022/01/28 10:41:16;;;;;;;33.17;5.80;;;5.80;99.90;;;;;;5057810;28;20060;-84
2022/01/28 10:43:48;;;;;;;28.52;4.25;;;5.80;99.90;;;;;;5066487;28;20059;-84
2022/01/28 10:46:23;;;;;;;21.30;3.72;;;5.90;99.90;;;;;;5064324;28;20361;-84
2022/01/28 10:48:58;;;;;;;20.65;3.92;;;5.90;99.90;;;;;;5077818;28;20266;-84
2022/01/28 10:51:40;;;;;;;21.63;3.63;;;5.90;99.90;;;;;;5099820;28;20737;-86
2022/01/28 10:54:08;;;;;;;23.33;5.03;;;5.90;99.90;;;;;;5078999;28;20109;-87
2022/01/28 10:56:54;;;;;;;18.77;3.35;;;5.90;99.90;;;;;;5064563;28;20036;-87
2022/01/28 10:59:22;;;;;;;24.67;4.97;;;5.90;99.90;;;;;;5069005;28;20040;-86
2022/01/28 11:01:48;;;;;;;18.48;3.88;;;5.90;99.90;;;;;;5062286;28;20196;-87
2022/01/28 11:04:16;;;;;;;23.65;3.88;;;5.90;99.90;;;;;;5084037;28;20162;-87
2022/01/28 11:06:44;;;;;;;25.98;4.15;;;6.00;99.90;;;;;;5065695;28;20122;-87
2022/01/28 11:09:11;;;;;;;21.83;3.10;;;6.00;99.90;;;;;;5071673;28;20046;-88
2022/01/28 11:11:39;;;;;;;21.60;3.15;;;6.00;99.90;;;;;;5088787;28;20494;-87
2022/01/28 11:14:05;;;;;;;23.73;3.63;;;6.00;99.90;;;;;;5072195;28;20042;-87
2022/01/28 11:16:31;;;;;;;21.08;3.35;;;6.00;99.90;;;;;;5069390;28;20062;-87
2022/01/28 11:18:57;;;;;;;19.80;3.70;;;6.00;99.90;;;;;;5069408;28;20471;-86
2022/01/28 11:21:46;;;;;;;20.17;3.60;;;6.00;99.90;;;;;;5068455;28;20107;-87
2022/01/28 11:24:42;;;;;;;22.00;3.67;;;6.00;99.90;;;;;;5083951;28;20032;-86
2022/01/28 11:27:17;;;;;;;22.42;3.95;;;6.00;99.90;;;;;;5085970;28;20431;-88
2022/01/28 11:29:44;;;;;;;22.33;3.65;;;6.00;99.90;;;;;;5103435;28;20039;-88
2022/01/28 11:32:15;;;;;;;19.98;3.08;;;6.10;99.90;;;;;;5086972;28;20085;-88
2022/01/28 11:34:57;;;;;;;25.20;3.45;;;6.10;99.90;;;;;;5068153;28;20039;-88
2022/01/28 11:37:31;;;;;;;21.20;4.07;;;6.10;99.90;;;;;;5066830;28;20040;-87
2022/01/28 11:40:15;;;;;;;24.00;3.90;;;6.10;99.90;;;;;;5066749;28;20051;-86
2022/01/28 11:42:41;;;;;;;21.00;4.80;;;6.20;99.90;;;;;;5069424;28;20062;-87
2022/01/28 11:45:09;;;;;;;32.60;4.65;;;6.20;99.90;;;;;;5073489;28;20451;-87
2022/01/28 11:47:41;;;;;;;21.67;4.22;;;6.20;99.90;;;;;;5071730;28;20060;-86
2022/01/28 11:50:16;;;;;;;27.88;4.25;;;6.20;99.90;;;;;;5066525;28;20381;-87
2022/01/28 11:52:50;;;;;;;27.27;4.13;;;6.20;99.90;;;;;;5066588;28;20063;-86
2022/01/28 11:55:25;;;;;;;23.92;3.65;;;6.20;99.90;;;;;;5072559;27;20048;-87
2022/01/28 11:57:58;;;;;;;25.77;8.00;;;6.10;99.90;;;;;;5074947;28;20051;-88
2022/01/28 12:00:39;;;;;;;30.27;4.82;;;6.10;99.90;;;;;;5068385;28;20123;-87
2022/01/28 12:03:21;;;;;;;26.23;3.80;;;6.10;99.90;;;;;;5072570;28;20031;-86
2022/01/28 12:05:46;;;;;;;42.65;16.52;;;6.20;99.90;;;;;;5112529;27;20054;-86
2022/01/28 12:08:13;;;;;;;27.55;7.57;;;6.20;99.90;;;;;;5073141;28;20035;-85
2022/01/28 12:10:43;;;;;;;23.92;5.60;;;6.20;99.90;;;;;;5071283;28;20062;-89
2022/01/28 12:13:15;;;;;;;25.08;3.78;;;6.20;99.90;;;;;;5081940;28;20036;-89
2022/01/28 12:16:11;;;;;;;46.90;13.75;;;6.20;99.90;;;;;;5071241;28;20043;-89
2022/01/28 12:18:56;;;;;;;21.58;3.50;;;6.30;99.90;;;;;;5086009;28;20044;-86
2022/01/28 12:21:34;;;;;;;18.20;5.32;;;6.10;99.90;;;;;;5068820;28;20247;-87
2022/01/28 12:24:18;;;;;;;21.73;3.45;;;6.20;99.90;;;;;;5074902;28;20328;-86
2022/01/28 12:27:09;;;;;;;25.00;3.42;;;6.20;99.90;;;;;;5073075;28;20065;-88
2022/01/28 12:29:44;;;;;;;23.70;3.83;;;6.20;99.90;;;;;;5087673;28;20168;-87
2022/01/28 12:32:11;;;;;;;24.20;3.30;;;6.20;99.90;;;;;;5088420;28;20482;-83
2022/01/28 12:34:45;;;;;;;18.27;3.17;;;6.20;99.90;;;;;;5073145;28;20036;-84
2022/01/28 12:37:11;;;;;;;25.95;4.15;;;6.20;99.90;;;;;;5070140;28;20096;-89
2022/01/28 12:39:50;;;;;;;21.90;3.75;;;6.30;99.90;;;;;;5090737;28;20047;-87
2022/01/28 12:42:23;;;;;;;20.95;5.50;;;6.30;99.90;;;;;;5073831;28;20040;-88
2022/01/28 12:44:57;;;;;;;18.40;3.42;;;6.30;99.90;;;;;;5088496;28;20115;-87
2022/01/28 12:47:31;;;;;;;21.33;4.32;;;6.30;99.90;;;;;;5089871;28;20043;-87
2022/01/28 12:50:03;;;;;;;19.38;4.70;;;6.30;99.90;;;;;;5120606;27;20044;-88
2022/01/28 12:52:36;;;;;;;18.58;3.28;;;6.30;99.90;;;;;;5092302;28;20407;-88
2022/01/28 12:55:03;;;;;;;22.73;3.58;;;6.30;99.90;;;;;;5092685;28;20038;-88
2022/01/28 12:57:28;;;;;;;22.60;3.10;;;6.30;99.90;;;;;;5076660;28;20031;-89
2022/01/28 12:59:54;;;;;;;15.35;2.72;;;6.30;99.90;;;;;;5075569;28;20534;-89
2022/01/28 13:02:21;;;;;;;19.95;3.30;;;6.40;99.90;;;;;;5075990;28;20042;-89
2022/01/28 13:10:20;;;;;;;18.42;3.25;;;6.50;99.90;;;;;;5086953;28;20421;-89
2022/01/28 13:12:46;;;;;;;18.05;3.22;;;6.50;99.90;;;;;;5091940;28;20043;-89
2022/01/28 13:15:13;;;;;;;26.50;3.00;;;6.40;99.90;;;;;;5091608;28;20063;-89
2022/01/28 13:17:50;;;;;;;18.85;3.28;;;6.40;99.90;;;;;;5091590;28;20032;-89
2022/01/28 13:20:16;;;;;;;14.25;3.00;;;6.40;99.90;;;;;;5091444;28;20491;-89
2022/01/28 13:22:51;;;;;;;18.08;3.58;;;6.30;99.90;;;;;;5093134;28;20080;-88
2022/01/28 13:25:25;;;;;;;15.55;3.15;;;6.30;99.90;;;;;;5090565;27;20039;-88
2022/01/28 13:27:57;;;;;;;17.48;3.33;;;6.30;99.90;;;;;;5073561;28;20032;-88
2022/01/28 13:30:24;;;;;;;23.75;3.33;;;6.40;99.90;;;;;;5075479;28;20499;-89
2022/01/28 13:32:52;;;;;;;18.92;2.95;;;6.40;99.90;;;;;;5074542;28;20036;-89
2022/01/28 13:35:23;;;;;;;15.38;3.22;;;6.40;99.90;;;;;;5091714;28;20051;-89
2022/01/28 13:37:55;;;;;;;18.65;2.80;;;6.50;99.90;;;;;;5071797;28;20528;-89
2022/01/28 13:40:21;;;;;;;26.23;3.72;;;6.50;99.90;;;;;;5092085;28;20111;-89
2022/01/28 13:43:11;;;;;;;22.88;3.15;;;6.50;99.90;;;;;;5075283;28;20134;-89
2022/01/28 13:45:55;;;;;;;19.98;2.85;;;6.40;99.90;;;;;;5075004;28;20054;-89
2022/01/28 13:48:37;;;;;;;25.30;3.35;;;6.40;99.90;;;;;;5073191;28;20032;-89
2022/01/28 13:51:16;;;;;;;25.27;4.15;;;6.40;99.90;;;;;;5090628;28;20067;-89
2022/01/28 13:54:34;;;;;;;20.77;3.05;;;6.50;99.90;;;;;;5092411;28;20043;-89
2022/01/28 13:56:43;;;;;;;18.48;3.00;;;6.40;99.90;;;;;;5081370;28;20047;-89
2022/01/28 13:59:20;;;;;;;23.77;3.42;;;6.50;99.90;;;;;;5074357;28;20476;-89
2022/01/28 14:01:49;;;;;;;15.23;2.92;;;6.50;99.90;;;;;;5070261;28;20491;-87
2022/01/28 14:04:20;;;;;;;27.15;7.22;;;6.50;99.90;;;;;;5066856;28;20487;-89
2022/01/28 14:06:46;;;;;;;26.83;6.10;;;6.50;99.90;;;;;;5081498;28;20127;-87
2022/01/28 14:09:15;;;;;;;42.13;18.70;;;6.50;99.90;;;;;;5064478;28;20115;-88
2022/01/28 14:11:52;;;;;;;71.45;30.27;;;6.50;99.90;;;;;;5079934;28;20040;-87
2022/01/28 14:14:23;;;;;;;22.15;4.10;;;6.60;99.90;;;;;;5090264;28;20111;-88